CYGV

Havre St Pierre Airport

ICAO Code CYGV
IATA Code YGV
Name Havre St Pierre Airport
Location Havre St-Pierre, Quebec, CA
Elevation 125 Feet / 38.1 Meters
Latitude 50.28194444
Longitude -63.61111111
METAR CYGV 182231Z AUTO 07011KT 9SM FEW006 SCT009 OVC017 17/16 A2985 RMK LTNG DIST SE SLP112 DENSITY ALT 500FT
Extra information Display NOTAMS
Display Charts
Runway Length Width Surface Elevation
08 4498 ft 100 ft ASP 110 ft
26 4498 ft 100 ft ASP 125 ft